createdAt,value
2023-03-16T00:01:30.976Z,1.35
2023-03-16T00:04:03.124Z,1.32
2023-03-16T00:06:36.818Z,1.29
2023-03-16T00:09:10.172Z,1.27
2023-03-16T00:11:42.299Z,1.26
2023-03-16T00:14:14.360Z,1.23
2023-03-16T00:16:47.956Z,1.19
2023-03-16T00:19:20.060Z,1.16
2023-03-16T00:21:52.529Z,1.11
2023-03-16T00:24:25.327Z,1.09
2023-03-16T00:26:57.245Z,1.07
2023-03-16T00:29:29.463Z,1.06
2023-03-16T00:32:01.436Z,1.04
2023-03-16T00:34:35.010Z,1.02
2023-03-16T00:37:07.089Z,1.00
2023-03-16T00:39:39.353Z,0.99
2023-03-16T00:42:12.809Z,0.96
2023-03-16T00:44:45.027Z,0.95
2023-03-16T00:47:17.020Z,0.94
2023-03-16T00:49:48.987Z,0.91
2023-03-16T00:52:22.369Z,0.88
2023-03-16T00:54:54.676Z,0.87
2023-03-16T00:57:27.888Z,0.85
2023-03-16T01:00:00.652Z,0.81
2023-03-16T01:02:32.567Z,0.78
2023-03-16T01:05:06.090Z,0.75
2023-03-16T01:07:38.013Z,0.73
2023-03-16T01:10:12.903Z,0.70
2023-03-16T01:12:46.217Z,0.68
2023-03-16T01:15:18.190Z,0.67
2023-03-16T01:17:50.060Z,0.66
2023-03-16T01:20:22.479Z,0.64
2023-03-16T01:22:54.357Z,0.61
2023-03-16T01:25:26.420Z,0.59
2023-03-16T01:27:58.218Z,0.58
2023-03-16T01:30:30.558Z,0.56
2023-03-16T01:33:02.457Z,0.55
2023-03-16T01:35:34.861Z,0.53
2023-03-16T01:38:06.760Z,0.52
2023-03-16T01:40:39.318Z,0.50
2023-03-16T01:43:14.064Z,0.48
2023-03-16T01:46:18.464Z,0.46
2023-03-16T01:48:55.603Z,0.43
2023-03-16T01:51:31.002Z,0.42
2023-03-16T01:54:05.850Z,0.41
2023-03-16T01:56:42.088Z,0.40
2023-03-16T01:59:17.807Z,0.39
2023-03-16T02:01:52.171Z,0.38
2023-03-16T02:04:30.742Z,0.37
2023-03-16T02:07:03.118Z,0.37
2023-03-16T02:09:36.338Z,0.35
2023-03-16T02:12:10.029Z,0.33
2023-03-16T02:14:41.753Z,0.31
2023-03-16T02:17:14.104Z,0.30
2023-03-16T02:19:52.707Z,0.29
2023-03-16T02:22:25.543Z,0.28
2023-03-16T02:24:57.742Z,0.27
2023-03-16T02:27:35.714Z,0.27
2023-03-16T02:30:11.727Z,0.25
2023-03-16T02:32:44.294Z,0.25
2023-03-16T02:35:16.172Z,0.24
2023-03-16T02:37:48.243Z,0.23
2023-03-16T02:40:28.432Z,0.23
2023-03-16T02:43:04.034Z,0.20
2023-03-16T02:45:40.661Z,0.17
2023-03-16T02:48:15.376Z,0.14
2023-03-16T02:50:50.224Z,0.12
2023-03-16T02:53:22.205Z,0.11
2023-03-16T02:55:53.998Z,0.10
2023-03-16T02:58:27.882Z,0.09
2023-03-16T03:01:00.298Z,0.06
2023-03-16T03:03:34.760Z,0.03
2023-03-16T03:06:07.070Z,0.02
2023-03-16T03:08:38.970Z,0.02
2023-03-16T03:11:10.962Z,0.02
2023-03-16T03:13:44.888Z,0.02
2023-03-16T03:16:17.033Z,0.02
2023-03-16T03:18:48.942Z,-0.02
2023-03-16T03:21:21.153Z,-0.04
2023-03-16T03:23:54.130Z,-0.06
2023-03-16T03:26:26.015Z,-0.07
2023-03-16T03:28:58.109Z,-0.07
2023-03-16T03:31:29.911Z,-0.08
2023-03-16T03:34:06.678Z,-0.08
2023-03-16T03:36:38.640Z,-0.07
2023-03-16T03:39:10.873Z,-0.06
2023-03-16T03:41:42.601Z,-0.07
2023-03-16T03:44:14.924Z,-0.06
2023-03-16T03:46:46.864Z,-0.06
2023-03-16T03:49:19.243Z,-0.05
2023-03-16T03:51:51.426Z,-0.05
2023-03-16T03:54:23.708Z,-0.04
2023-03-16T03:56:55.555Z,-0.04
2023-03-16T03:59:27.827Z,-0.04
2023-03-16T04:01:59.799Z,-0.05
2023-03-16T04:04:32.055Z,-0.05
2023-03-16T04:07:04.257Z,-0.06
2023-03-16T04:09:36.517Z,-0.05
2023-03-16T04:12:09.407Z,-0.07
2023-03-16T04:14:41.512Z,-0.08
2023-03-16T04:17:13.588Z,-0.09
2023-03-16T04:19:45.879Z,-0.11
2023-03-16T04:22:18.008Z,-0.11
2023-03-16T04:24:50.148Z,-0.12
2023-03-16T04:27:21.979Z,-0.14
2023-03-16T04:30:00.102Z,-0.16
2023-03-16T04:32:32.165Z,-0.17
2023-03-16T04:35:04.604Z,-0.19
2023-03-16T04:37:36.479Z,-0.20
2023-03-16T04:40:16.661Z,-0.20
2023-03-16T04:42:49.190Z,-0.20
2023-03-16T04:45:21.260Z,-0.21
2023-03-16T04:47:53.139Z,-0.22
2023-03-16T04:50:26.204Z,-0.22
2023-03-16T04:52:58.272Z,-0.22
2023-03-16T04:55:31.404Z,-0.22
2023-03-16T04:58:03.205Z,-0.22
2023-03-16T05:00:35.334Z,-0.22
2023-03-16T05:03:07.486Z,-0.22
2023-03-16T05:05:39.779Z,-0.22
2023-03-16T05:08:12.385Z,-0.20
2023-03-16T05:10:44.821Z,-0.19
2023-03-16T05:13:16.810Z,-0.17
2023-03-16T05:15:49.009Z,-0.16
2023-03-16T05:18:21.631Z,-0.16
2023-03-16T05:20:56.028Z,-0.14
2023-03-16T05:23:28.114Z,-0.13
2023-03-16T05:26:01.208Z,-0.11
2023-03-16T05:28:33.148Z,-0.10
2023-03-16T05:31:05.148Z,-0.09
2023-03-16T05:33:37.007Z,-0.09
2023-03-16T05:36:09.842Z,-0.10
2023-03-16T05:38:42.665Z,-0.11
2023-03-16T05:41:15.004Z,-0.11
2023-03-16T05:43:46.867Z,-0.09
2023-03-16T05:46:20.763Z,-0.06
2023-03-16T05:48:52.801Z,-0.00
2023-03-16T05:51:26.709Z,0.03
2023-03-16T05:53:58.916Z,0.07
2023-03-16T05:56:31.452Z,0.10
2023-03-16T05:59:03.821Z,0.14
2023-03-16T06:01:36.171Z,0.18
2023-03-16T06:04:08.342Z,0.22
2023-03-16T06:06:40.794Z,0.25
2023-03-16T06:09:12.686Z,0.29
2023-03-16T06:11:44.762Z,0.31
2023-03-16T06:14:16.517Z,0.34
2023-03-16T06:16:48.517Z,0.38
2023-03-16T06:19:20.323Z,0.42
2023-03-16T06:21:52.451Z,0.45
2023-03-16T06:24:24.269Z,0.50
2023-03-16T06:26:56.203Z,0.56
2023-03-16T06:29:28.023Z,0.61
2023-03-16T06:32:00.124Z,0.67
2023-03-16T06:34:31.903Z,0.74
2023-03-16T06:37:04.213Z,0.79
2023-03-16T06:39:36.176Z,0.86
2023-03-16T06:42:08.549Z,0.92
2023-03-16T06:44:40.472Z,0.98
2023-03-16T06:47:12.471Z,1.04
2023-03-16T06:49:44.262Z,1.09
2023-03-16T06:52:16.721Z,1.15
2023-03-16T06:54:48.511Z,1.21
2023-03-16T06:57:20.752Z,1.26
2023-03-16T06:59:52.508Z,1.30
2023-03-16T07:02:24.711Z,1.35
2023-03-16T07:04:57.695Z,1.40
2023-03-16T07:07:30.218Z,1.43
2023-03-16T07:10:02.646Z,1.48
2023-03-16T07:12:35.156Z,1.53
2023-03-16T07:15:08.082Z,1.59
2023-03-16T07:17:40.198Z,1.65
2023-03-16T07:20:14.255Z,1.71
2023-03-16T07:22:46.403Z,1.76
2023-03-16T07:25:18.434Z,1.80
2023-03-16T07:27:50.830Z,1.86
2023-03-16T07:30:23.024Z,1.91
2023-03-16T07:32:55.103Z,1.98
2023-03-16T07:35:27.685Z,2.04
2023-03-16T07:37:59.862Z,2.09
2023-03-16T07:40:34.616Z,2.17
2023-03-16T07:43:06.713Z,2.23
2023-03-16T07:45:38.792Z,2.29
2023-03-16T07:48:11.007Z,2.36
2023-03-16T07:50:42.815Z,2.46
2023-03-16T07:53:15.671Z,2.55
2023-03-16T07:55:47.826Z,2.63
2023-03-16T07:58:19.960Z,2.72
2023-03-16T08:00:52.014Z,2.83
2023-03-16T08:03:24.217Z,2.94
2023-03-16T08:05:56.849Z,3.07
2023-03-16T08:08:28.807Z,3.15
2023-03-16T08:11:00.897Z,3.26
2023-03-16T08:13:35.618Z,3.42
2023-03-16T08:16:10.512Z,3.58
2023-03-16T08:18:42.841Z,3.72
2023-03-16T08:21:15.412Z,3.89
2023-03-16T08:23:49.780Z,4.11
2023-03-16T08:26:22.336Z,4.37
2023-03-16T08:28:55.335Z,4.67
2023-03-16T08:31:27.351Z,5.09
2023-03-16T08:33:59.742Z,5.53
2023-03-16T08:36:32.121Z,5.89
2023-03-16T08:39:07.585Z,6.26
2023-03-16T08:41:40.994Z,6.59
2023-03-16T08:44:13.132Z,6.87
2023-03-16T08:46:45.080Z,7.08
2023-03-16T08:49:17.548Z,7.26
2023-03-16T08:51:49.370Z,7.49
2023-03-16T08:54:21.340Z,7.46
2023-03-16T08:56:53.255Z,7.39
2023-03-16T08:59:30.545Z,7.38
2023-03-16T09:02:04.521Z,7.55
2023-03-16T09:04:37.781Z,7.76
2023-03-16T09:07:10.222Z,7.97
2023-03-16T09:09:42.477Z,7.90
2023-03-16T09:12:14.624Z,7.78
2023-03-16T09:14:46.821Z,7.92
2023-03-16T09:17:18.748Z,8.31
2023-03-16T09:19:52.902Z,8.74
2023-03-16T09:22:26.401Z,9.01
2023-03-16T09:24:58.276Z,9.11
2023-03-16T09:27:30.852Z,9.33
2023-03-16T09:30:03.632Z,9.59
2023-03-16T09:32:37.626Z,9.87
2023-03-16T09:35:08.968Z,9.92
2023-03-16T09:37:45.471Z,9.94
2023-03-16T09:40:26.626Z,10.16
2023-03-16T09:43:08.679Z,10.32
2023-03-16T09:45:46.623Z,10.31
2023-03-16T09:48:21.069Z,10.07
2023-03-16T09:50:53.354Z,9.99
2023-03-16T09:53:28.713Z,9.98
2023-03-16T09:56:06.725Z,9.84
2023-03-16T09:58:39.460Z,9.58
2023-03-16T10:01:17.534Z,9.30
2023-03-16T10:04:11.062Z,8.92
2023-03-16T10:06:48.341Z,8.68
2023-03-16T10:09:28.657Z,8.64
2023-03-16T10:12:04.051Z,8.63
2023-03-16T10:14:41.499Z,8.66
2023-03-16T10:17:17.864Z,8.52
2023-03-16T10:19:52.697Z,8.40
2023-03-16T10:22:27.363Z,8.14
2023-03-16T10:25:06.014Z,7.85
2023-03-16T10:27:40.167Z,7.50
2023-03-16T10:30:21.802Z,7.21
2023-03-16T10:32:54.753Z,6.99
2023-03-16T10:35:34.215Z,6.79
2023-03-16T10:38:06.852Z,6.76
2023-03-16T10:40:40.884Z,6.58
2023-03-16T10:43:17.268Z,6.35
2023-03-16T10:45:50.076Z,6.19
2023-03-16T10:48:23.403Z,6.20
2023-03-16T10:50:58.400Z,6.44
2023-03-16T10:53:33.304Z,6.75
2023-03-16T10:56:13.817Z,7.11
2023-03-16T10:58:46.466Z,7.36
2023-03-16T11:01:22.496Z,7.39
2023-03-16T11:03:57.355Z,7.47
2023-03-16T11:06:34.012Z,7.50
2023-03-16T11:09:14.108Z,7.49
2023-03-16T11:11:49.696Z,7.51
2023-03-16T11:14:26.517Z,7.68
2023-03-16T11:17:04.471Z,7.83
2023-03-16T11:19:38.313Z,7.85
2023-03-16T11:22:13.862Z,7.91
2023-03-16T11:24:50.516Z,7.91
2023-03-16T11:27:26.341Z,8.03
2023-03-16T11:30:11.662Z,8.21
2023-03-16T11:32:47.223Z,8.36
2023-03-16T11:35:22.155Z,8.49
2023-03-16T11:38:04.645Z,8.56
2023-03-16T11:40:47.665Z,8.53
2023-03-16T11:43:35.064Z,8.43
2023-03-16T11:46:14.215Z,8.19
2023-03-16T11:48:51.268Z,7.92
2023-03-16T11:51:36.604Z,7.74
2023-03-16T11:54:23.129Z,7.60
2023-03-16T11:56:59.167Z,7.33
2023-03-16T11:59:49.010Z,7.02
2023-03-16T12:02:37.850Z,6.71
2023-03-16T12:05:30.496Z,6.56
2023-03-16T12:08:11.394Z,6.50
2023-03-16T12:10:46.852Z,6.39
2023-03-16T12:13:33.837Z,6.27
2023-03-16T12:16:11.072Z,6.16
2023-03-16T12:18:47.901Z,6.04
2023-03-16T12:21:24.653Z,5.92
2023-03-16T12:23:59.887Z,5.88
2023-03-16T12:26:35.358Z,5.87
2023-03-16T12:29:13.805Z,5.82
2023-03-16T12:31:50.246Z,5.80
2023-03-16T12:34:28.795Z,5.78
2023-03-16T12:37:15.790Z,5.78
2023-03-16T12:40:14.635Z,5.81
2023-03-16T12:42:57.740Z,5.81
2023-03-16T12:45:34.264Z,5.82
2023-03-16T12:48:14.668Z,5.87
2023-03-16T12:50:55.432Z,5.88
2023-03-16T12:53:42.943Z,5.89
2023-03-16T12:56:17.718Z,5.90
2023-03-16T12:58:51.724Z,5.84
2023-03-16T13:01:29.622Z,5.77
2023-03-16T13:04:08.045Z,5.69
2023-03-16T13:06:43.547Z,5.66
2023-03-16T13:09:19.608Z,5.63
2023-03-16T13:11:53.408Z,5.61
2023-03-16T13:14:40.418Z,5.61
2023-03-16T13:17:28.433Z,5.64
2023-03-16T13:20:31.824Z,5.65
2023-03-16T13:23:24.202Z,5.69
2023-03-16T13:26:12.417Z,5.75
2023-03-16T13:28:47.255Z,5.85
2023-03-16T13:31:30.354Z,5.91
2023-03-16T13:34:03.976Z,5.96
2023-03-16T13:36:38.133Z,6.04
2023-03-16T13:39:18.825Z,6.13
2023-03-16T13:42:03.392Z,6.19
2023-03-16T13:44:35.038Z,6.24
2023-03-16T13:47:08.566Z,6.30
2023-03-16T13:49:47.495Z,6.39
2023-03-16T13:52:26.253Z,6.52
2023-03-16T13:54:58.619Z,6.66
2023-03-16T13:57:32.207Z,6.81
2023-03-16T14:00:15.748Z,6.96
2023-03-16T14:02:50.865Z,6.98
2023-03-16T14:05:25.969Z,6.94
2023-03-16T14:08:01.081Z,6.86
2023-03-16T14:10:36.054Z,6.71
2023-03-16T14:13:24.070Z,6.59
2023-03-16T14:15:56.700Z,6.49
2023-03-16T14:18:32.430Z,6.40
2023-03-16T14:21:09.283Z,6.29
2023-03-16T14:23:44.602Z,6.25
2023-03-16T14:26:19.460Z,6.21
2023-03-16T14:29:03.274Z,6.16
2023-03-16T14:31:37.009Z,6.14
2023-03-16T14:34:21.394Z,6.13
2023-03-16T14:36:51.771Z,6.12
2023-03-16T14:39:24.026Z,6.09
2023-03-16T14:41:55.932Z,6.04
2023-03-16T14:44:30.903Z,6.01
2023-03-16T14:47:03.759Z,5.97
2023-03-16T14:49:36.551Z,5.92
2023-03-16T14:52:13.738Z,5.87
2023-03-16T14:54:45.893Z,5.86
2023-03-16T14:57:20.266Z,5.88
2023-03-16T14:59:52.188Z,5.92
2023-03-16T15:02:27.816Z,5.93
2023-03-16T15:05:00.702Z,5.95
2023-03-16T15:07:34.348Z,5.89
2023-03-16T15:10:19.027Z,5.81
2023-03-16T15:12:54.574Z,5.75
2023-03-16T15:15:28.590Z,5.74
2023-03-16T15:18:01.232Z,5.74
2023-03-16T15:20:36.048Z,5.76
2023-03-16T15:23:08.043Z,5.79
2023-03-16T15:25:41.418Z,5.80
2023-03-16T15:28:18.382Z,5.81
2023-03-16T15:30:52.638Z,5.81
2023-03-16T15:33:23.334Z,5.81
2023-03-16T15:35:57.718Z,5.82
2023-03-16T15:38:31.620Z,5.84
2023-03-16T15:41:04.167Z,5.85
2023-03-16T15:43:36.016Z,5.85
2023-03-16T15:46:08.153Z,5.85
2023-03-16T15:48:40.578Z,5.81
2023-03-16T15:51:21.391Z,5.77
2023-03-16T15:53:54.999Z,5.74
2023-03-16T15:56:30.346Z,5.71
2023-03-16T15:59:04.637Z,5.71
2023-03-16T16:01:45.081Z,5.71
2023-03-16T16:04:20.056Z,5.66
2023-03-16T16:06:55.224Z,5.61
2023-03-16T16:09:27.762Z,5.57
2023-03-16T16:11:59.912Z,5.52
2023-03-16T16:14:31.946Z,5.47
2023-03-16T16:17:04.335Z,5.44
2023-03-16T16:19:36.387Z,5.39
2023-03-16T16:22:09.927Z,5.33
2023-03-16T16:24:42.050Z,5.28
2023-03-16T16:27:15.099Z,5.22
2023-03-16T16:29:46.877Z,5.15
2023-03-16T16:32:25.000Z,5.08
2023-03-16T16:35:04.169Z,5.00
2023-03-16T16:37:37.142Z,4.94
2023-03-16T16:40:11.249Z,4.90
2023-03-16T16:42:43.599Z,4.82
2023-03-16T16:45:20.879Z,4.74
2023-03-16T16:47:56.260Z,4.66
2023-03-16T16:50:31.390Z,4.59
2023-03-16T16:53:03.994Z,4.53
2023-03-16T16:55:36.260Z,4.48
2023-03-16T16:58:23.581Z,4.43
2023-03-16T17:00:59.136Z,4.38
2023-03-16T17:03:32.134Z,4.34
2023-03-16T17:06:04.167Z,4.32
2023-03-16T17:08:36.995Z,4.29
2023-03-16T17:11:11.056Z,4.25
2023-03-16T17:13:46.342Z,4.22
2023-03-16T17:16:20.622Z,4.19
2023-03-16T17:18:53.904Z,4.15
2023-03-16T17:21:28.697Z,4.09
2023-03-16T17:24:03.132Z,4.05
2023-03-16T17:26:38.328Z,4.02
2023-03-16T17:29:16.356Z,3.99
2023-03-16T17:31:48.401Z,3.96
2023-03-16T17:34:22.839Z,3.92
2023-03-16T17:36:55.923Z,3.89
2023-03-16T17:39:29.527Z,3.85
2023-03-16T17:42:02.805Z,3.80
2023-03-16T17:44:37.278Z,3.77
2023-03-16T17:47:17.450Z,3.74
2023-03-16T17:49:51.018Z,3.70
2023-03-16T17:52:25.493Z,3.68
2023-03-16T17:54:57.673Z,3.67
2023-03-16T17:57:32.132Z,3.65
2023-03-16T18:00:08.980Z,3.64
2023-03-16T18:02:44.810Z,3.62
2023-03-16T18:05:22.220Z,3.60
2023-03-16T18:07:55.015Z,3.57
2023-03-16T18:10:29.242Z,3.54
2023-03-16T18:13:03.579Z,3.51
2023-03-16T18:15:35.016Z,3.49
2023-03-16T18:18:08.584Z,3.45
2023-03-16T18:20:41.490Z,3.41
2023-03-16T18:23:19.716Z,3.39
2023-03-16T18:25:54.728Z,3.37
2023-03-16T18:28:27.527Z,3.35
2023-03-16T18:31:00.235Z,3.33
2023-03-16T18:33:36.033Z,3.30
2023-03-16T18:36:19.240Z,3.26
2023-03-16T18:38:52.681Z,3.23
2023-03-16T18:41:26.833Z,3.22
2023-03-16T18:44:00.808Z,3.21
2023-03-16T18:46:34.944Z,3.22
2023-03-16T18:49:08.816Z,3.24
2023-03-16T18:51:41.796Z,3.26
2023-03-16T18:54:23.746Z,3.27
2023-03-16T18:56:58.713Z,3.29
2023-03-16T18:59:31.647Z,3.31
2023-03-16T19:02:03.847Z,3.32
2023-03-16T19:04:42.095Z,3.32
2023-03-16T19:07:22.201Z,3.34
2023-03-16T19:09:54.324Z,3.35
2023-03-16T19:12:28.363Z,3.36
2023-03-16T19:15:00.914Z,3.38
2023-03-16T19:17:33.898Z,3.39
2023-03-16T19:20:08.555Z,3.40
2023-03-16T19:22:40.416Z,3.40
2023-03-16T19:25:20.330Z,3.39
2023-03-16T19:27:54.109Z,3.38
2023-03-16T19:30:28.599Z,3.37
2023-03-16T19:33:01.588Z,3.34
2023-03-16T19:35:51.080Z,3.31
2023-03-16T19:38:25.063Z,3.28
2023-03-16T19:40:59.294Z,3.25
2023-03-16T19:43:31.490Z,3.23
2023-03-16T19:46:03.977Z,3.21
2023-03-16T19:48:37.464Z,3.21
2023-03-16T19:51:09.797Z,3.20
2023-03-16T19:53:42.399Z,3.19
2023-03-16T19:56:18.545Z,3.18
2023-03-16T19:58:52.042Z,3.18
2023-03-16T20:01:26.971Z,3.18
2023-03-16T20:03:59.782Z,3.18
2023-03-16T20:06:33.451Z,3.19
2023-03-16T20:09:04.208Z,3.20
2023-03-16T20:11:36.340Z,3.20
2023-03-16T20:14:10.638Z,3.21
2023-03-16T20:16:41.315Z,3.23
2023-03-16T20:19:16.915Z,3.24
2023-03-16T20:21:49.023Z,3.25
2023-03-16T20:24:23.374Z,3.27
2023-03-16T20:26:54.085Z,3.29
2023-03-16T20:29:30.533Z,3.31
2023-03-16T20:32:03.935Z,3.33
2023-03-16T20:34:36.099Z,3.34
2023-03-16T20:37:21.683Z,3.36
2023-03-16T20:39:54.700Z,3.37
2023-03-16T20:42:28.794Z,3.38
2023-03-16T20:45:01.703Z,3.39
2023-03-16T20:47:33.771Z,3.39
2023-03-16T20:50:06.812Z,3.41
2023-03-16T20:52:39.574Z,3.41
2023-03-16T20:55:15.914Z,3.42
2023-03-16T20:57:49.040Z,3.41
2023-03-16T21:00:28.610Z,3.38
2023-03-16T21:03:01.041Z,3.35
2023-03-16T21:05:33.951Z,3.32
2023-03-16T21:08:06.640Z,3.29
2023-03-16T21:10:38.666Z,3.27
2023-03-16T21:13:21.515Z,3.23
2023-03-16T21:15:54.652Z,3.21
2023-03-16T21:18:26.713Z,3.21
2023-03-16T21:20:58.960Z,3.21
2023-03-16T21:23:31.462Z,3.22
2023-03-16T21:26:04.427Z,3.22
2023-03-16T21:28:37.948Z,3.22
2023-03-16T21:31:09.874Z,3.21
2023-03-16T21:33:43.342Z,3.21
2023-03-16T21:36:18.237Z,3.19
2023-03-16T21:38:50.803Z,3.19
2023-03-16T21:41:22.741Z,3.18
2023-03-16T21:43:56.043Z,3.17
2023-03-16T21:46:28.165Z,3.15
2023-03-16T21:48:59.970Z,3.15
2023-03-16T21:51:32.588Z,3.15
2023-03-16T21:54:10.920Z,3.14
2023-03-16T21:56:43.096Z,3.12
2023-03-16T21:59:15.575Z,3.09
2023-03-16T22:02:01.193Z,3.07
2023-03-16T22:04:33.820Z,3.03
2023-03-16T22:07:07.073Z,2.99
2023-03-16T22:09:39.653Z,2.95
2023-03-16T22:12:14.007Z,2.92
2023-03-16T22:14:46.173Z,2.88
2023-03-16T22:17:22.291Z,2.85
2023-03-16T22:19:54.209Z,2.82
2023-03-16T22:22:26.246Z,2.79
2023-03-16T22:24:58.232Z,2.74
2023-03-16T22:27:30.504Z,2.68
2023-03-16T22:30:02.340Z,2.63
2023-03-16T22:32:35.657Z,2.59
2023-03-16T22:35:09.825Z,2.54
2023-03-16T22:37:41.658Z,2.51
2023-03-16T22:40:19.150Z,2.47
2023-03-16T22:42:51.256Z,2.43
2023-03-16T22:45:26.087Z,2.38
2023-03-16T22:47:59.270Z,2.34
2023-03-16T22:50:35.162Z,2.30
2023-03-16T22:53:08.273Z,2.26
2023-03-16T22:55:41.855Z,2.22
2023-03-16T22:58:16.561Z,2.16
2023-03-16T23:00:48.662Z,2.11
2023-03-16T23:03:22.737Z,2.06
2023-03-16T23:05:53.469Z,2.03
2023-03-16T23:08:26.764Z,1.98
2023-03-16T23:10:58.963Z,1.95
2023-03-16T23:13:31.124Z,1.91
2023-03-16T23:16:03.228Z,1.87
2023-03-16T23:18:35.222Z,1.83
2023-03-16T23:21:07.448Z,1.80
2023-03-16T23:23:39.409Z,1.77
2023-03-16T23:26:17.905Z,1.74
2023-03-16T23:28:50.778Z,1.70
2023-03-16T23:31:23.235Z,1.67
2023-03-16T23:33:55.821Z,1.63
2023-03-16T23:36:28.258Z,1.60
2023-03-16T23:39:00.364Z,1.57
2023-03-16T23:41:32.351Z,1.55
2023-03-16T23:44:04.907Z,1.52
2023-03-16T23:46:37.449Z,1.48
2023-03-16T23:49:09.231Z,1.43
2023-03-16T23:51:41.533Z,1.37
2023-03-16T23:54:17.684Z,1.33
2023-03-16T23:56:50.237Z,1.29
2023-03-16T23:59:23.632Z,1.26
